createdAt,value
2019-02-11T00:04:54.567Z,7.25
2019-02-11T00:09:59.821Z,6.80
2019-02-11T00:15:01.999Z,5.75
2019-02-11T00:20:08.567Z,8.28
2019-02-11T00:25:10.114Z,13.60
2019-02-11T00:30:11.777Z,6.95
2019-02-11T00:35:13.433Z,7.62
2019-02-11T00:40:15.130Z,12.30
2019-02-11T00:45:16.648Z,13.35
2019-02-11T00:50:18.221Z,10.48
2019-02-11T00:55:19.810Z,20.95
2019-02-11T01:00:21.301Z,25.30
2019-02-11T01:05:22.777Z,22.32
2019-02-11T01:10:24.401Z,19.95
2019-02-11T01:15:25.840Z,14.00
2019-02-11T01:20:28.715Z,18.35
2019-02-11T01:25:30.146Z,19.10
2019-02-11T01:30:35.046Z,20.65
2019-02-11T01:35:36.986Z,29.27
2019-02-11T01:40:58.206Z,21.77
2019-02-11T01:46:01.644Z,20.80
2019-02-11T01:51:03.323Z,17.10
2019-02-11T01:56:07.199Z,20.77
2019-02-11T02:01:10.812Z,23.70
2019-02-11T02:06:13.655Z,29.63
2019-02-11T02:11:16.819Z,19.82
2019-02-11T02:16:18.641Z,20.23
2019-02-11T02:21:20.120Z,22.87
2019-02-11T02:26:21.798Z,19.05
2019-02-11T02:31:24.852Z,18.30
2019-02-11T02:36:26.218Z,23.77
2019-02-11T02:41:29.858Z,23.07
2019-02-11T02:46:31.354Z,19.82
2019-02-11T02:51:32.999Z,24.85
2019-02-11T02:56:34.442Z,24.77
2019-02-11T03:01:35.984Z,24.40
2019-02-11T03:06:37.750Z,14.30
2019-02-11T03:11:39.377Z,20.62
2019-02-11T03:16:40.998Z,27.62
2019-02-11T03:21:42.461Z,23.55
2019-02-11T03:26:43.997Z,19.25
2019-02-11T03:31:45.472Z,29.90
2019-02-11T03:36:47.071Z,28.05
2019-02-11T03:41:48.953Z,27.62
2019-02-11T03:46:52.004Z,22.30
2019-02-11T03:51:53.435Z,15.18
2019-02-11T03:56:54.960Z,25.40
2019-02-11T04:01:56.948Z,22.00
2019-02-11T04:06:58.366Z,25.30
2019-02-11T04:12:00.769Z,25.92
2019-02-11T04:17:02.345Z,27.67
2019-02-11T04:22:06.511Z,24.37
2019-02-11T04:27:26.601Z,30.70
2019-02-11T04:32:27.989Z,28.00
2019-02-11T04:37:29.598Z,23.35
2019-02-11T04:42:31.518Z,24.67
2019-02-11T04:47:32.984Z,23.75
2019-02-11T04:52:34.997Z,19.37
2019-02-11T04:57:36.455Z,22.62
2019-02-11T05:02:37.951Z,25.55
2019-02-11T05:07:39.375Z,28.30
2019-02-11T05:12:40.982Z,21.02
2019-02-11T05:17:42.800Z,29.40
2019-02-11T05:22:44.163Z,23.75
2019-02-11T05:27:45.578Z,24.07
2019-02-11T05:32:46.905Z,28.80
2019-02-11T05:37:50.291Z,21.52
2019-02-11T05:42:54.062Z,27.95
2019-02-11T05:47:55.387Z,24.07
2019-02-11T05:52:56.889Z,27.35
2019-02-11T05:57:58.361Z,31.45
2019-02-11T06:02:59.983Z,21.77
2019-02-11T06:08:01.524Z,27.50
2019-02-11T06:13:06.163Z,34.03
2019-02-11T06:18:07.792Z,25.05
2019-02-11T06:23:12.347Z,23.65
2019-02-11T06:28:13.890Z,29.52
2019-02-11T06:33:15.399Z,34.55
2019-02-11T06:38:16.790Z,24.35
2019-02-11T06:43:19.993Z,26.17
2019-02-11T06:48:21.414Z,26.27
2019-02-11T06:53:22.781Z,25.50
2019-02-11T06:58:24.452Z,27.73
2019-02-11T07:03:27.096Z,24.20
2019-02-11T07:08:28.554Z,28.83
2019-02-11T07:13:30.170Z,26.85
2019-02-11T07:18:31.901Z,29.23
2019-02-11T07:23:36.192Z,28.55
2019-02-11T07:28:37.774Z,24.45
2019-02-11T07:33:40.825Z,26.25
2019-02-11T07:38:42.389Z,28.85
2019-02-11T07:43:48.503Z,44.08
2019-02-11T07:48:50.276Z,34.83
2019-02-11T07:53:52.029Z,31.33
2019-02-11T07:58:53.599Z,24.45
2019-02-11T08:03:55.498Z,31.95
2019-02-11T08:08:56.875Z,24.50
2019-02-11T08:13:58.319Z,33.60
2019-02-11T08:19:01.554Z,20.97
2019-02-11T08:24:04.803Z,26.97
2019-02-11T08:29:06.372Z,32.15
2019-02-11T08:34:08.597Z,29.67
2019-02-11T08:39:10.189Z,28.73
2019-02-11T08:44:13.151Z,40.10
2019-02-11T08:49:16.460Z,44.27
2019-02-11T08:54:20.857Z,30.77
2019-02-11T08:59:24.496Z,33.18
2019-02-11T09:04:30.197Z,22.17
2019-02-11T09:09:31.493Z,23.98
2019-02-11T09:14:33.990Z,23.87
2019-02-11T09:19:42.320Z,26.93
2019-02-11T09:24:43.850Z,33.60
2019-02-11T09:29:45.357Z,19.48
2019-02-11T09:34:46.748Z,26.00
2019-02-11T09:39:48.162Z,22.35
2019-02-11T09:44:49.847Z,26.25
2019-02-11T09:50:13.305Z,25.37
2019-02-11T09:55:22.294Z,26.10
2019-02-11T10:00:24.075Z,21.90
2019-02-11T10:05:25.572Z,24.60
2019-02-11T10:10:27.041Z,21.75
2019-02-11T10:15:28.647Z,18.82
2019-02-11T10:20:33.159Z,28.35
2019-02-11T10:25:34.637Z,21.05
2019-02-11T10:30:54.844Z,20.05
2019-02-11T10:35:57.244Z,28.30
2019-02-11T10:40:58.718Z,20.45
2019-02-11T10:46:02.003Z,16.97
2019-02-11T10:51:03.506Z,18.23
2019-02-11T10:56:04.816Z,17.25
2019-02-11T11:01:06.522Z,13.93
2019-02-11T11:06:08.152Z,23.45
2019-02-11T11:11:09.747Z,14.13
2019-02-11T11:16:11.321Z,18.67
2019-02-11T11:21:13.341Z,16.80
2019-02-11T11:26:14.894Z,14.58
2019-02-11T11:31:16.637Z,13.03
2019-02-11T11:36:18.082Z,12.60
2019-02-11T11:41:20.577Z,15.25
2019-02-11T11:46:21.984Z,18.23
2019-02-11T11:51:24.759Z,17.27
2019-02-11T11:56:26.231Z,12.23
2019-02-11T12:01:27.945Z,10.95
2019-02-11T12:06:29.324Z,7.53
2019-02-11T12:11:30.899Z,12.95
2019-02-11T12:16:32.383Z,15.00
2019-02-11T12:21:34.041Z,11.35
2019-02-11T12:26:37.381Z,14.63
2019-02-11T12:31:38.758Z,16.75
2019-02-11T12:36:40.256Z,16.55
2019-02-11T12:41:41.881Z,16.48
2019-02-11T12:46:43.300Z,9.93
2019-02-11T12:51:44.804Z,22.90
2019-02-11T12:56:46.107Z,9.20
2019-02-11T13:01:47.667Z,32.88
2019-02-11T13:06:49.144Z,11.57
2019-02-11T13:11:50.419Z,11.83
2019-02-11T13:16:51.855Z,14.18
2019-02-11T13:21:53.645Z,16.10
2019-02-11T13:26:58.482Z,13.83
2019-02-11T13:31:59.815Z,12.73
2019-02-11T13:37:01.754Z,14.50
2019-02-11T13:42:03.231Z,18.37
2019-02-11T13:47:04.945Z,13.55
2019-02-11T13:52:06.588Z,20.43
2019-02-11T13:57:07.979Z,16.62
2019-02-11T14:02:10.332Z,16.93
2019-02-11T14:07:11.946Z,14.30
2019-02-11T14:12:13.715Z,32.00
2019-02-11T14:17:15.148Z,19.75
2019-02-11T14:22:16.758Z,11.88
2019-02-11T14:27:18.510Z,15.98
2019-02-11T14:32:21.487Z,12.93
2019-02-11T14:37:22.916Z,10.30
2019-02-11T14:42:24.247Z,15.40
2019-02-11T14:47:25.526Z,15.83
2019-02-11T14:52:27.037Z,10.88
2019-02-11T14:57:28.573Z,12.30
2019-02-11T15:02:30.087Z,13.03
2019-02-11T15:07:31.815Z,14.70
2019-02-11T15:12:34.310Z,14.50
2019-02-11T15:17:37.045Z,10.60
2019-02-11T15:22:38.506Z,16.45
2019-02-11T15:27:39.824Z,13.38
2019-02-11T15:32:41.224Z,17.50
2019-02-11T15:37:42.743Z,12.82
2019-02-11T15:42:44.063Z,14.38
2019-02-11T15:47:45.698Z,15.63
2019-02-11T15:52:47.154Z,16.42
2019-02-11T15:57:48.566Z,15.78
2019-02-11T16:02:51.702Z,14.03
2019-02-11T16:07:53.511Z,17.85
2019-02-11T16:12:55.135Z,14.25
2019-02-11T16:17:56.479Z,14.35
2019-02-11T16:22:58.304Z,10.25
2019-02-11T16:28:00.442Z,19.48
2019-02-11T16:33:01.856Z,21.00
2019-02-11T16:38:03.459Z,20.02
2019-02-11T16:43:04.959Z,22.65
2019-02-11T16:48:06.386Z,14.45
2019-02-11T16:53:08.016Z,14.45
2019-02-11T16:58:09.399Z,13.45
2019-02-11T17:03:11.073Z,11.53
2019-02-11T17:08:12.598Z,23.87
2019-02-11T17:13:14.337Z,20.43
2019-02-11T17:18:15.739Z,13.80
2019-02-11T17:23:17.074Z,18.27
2019-02-11T17:28:22.007Z,18.10
2019-02-11T17:33:23.403Z,9.83
2019-02-11T17:38:24.751Z,15.32
2019-02-11T17:43:26.335Z,18.73
2019-02-11T17:48:28.242Z,15.83
2019-02-11T17:53:29.687Z,19.48
2019-02-11T17:58:31.115Z,18.92
2019-02-11T18:03:32.933Z,24.07
2019-02-11T18:08:34.532Z,20.25
2019-02-11T18:13:37.145Z,25.85
2019-02-11T18:18:39.175Z,21.70
2019-02-11T18:23:40.554Z,14.87
2019-02-11T18:28:42.299Z,18.75
2019-02-11T18:33:43.854Z,19.67
2019-02-11T18:38:45.291Z,21.62
2019-02-11T18:43:46.980Z,20.52
2019-02-11T18:48:48.362Z,23.12
2019-02-11T18:53:49.881Z,17.37
2019-02-11T18:58:51.388Z,22.32
2019-02-11T19:03:53.144Z,23.60
2019-02-11T19:08:54.817Z,23.52
2019-02-11T19:13:56.188Z,26.93
2019-02-11T19:18:57.745Z,25.05
2019-02-11T19:24:00.114Z,27.77
2019-02-11T19:29:01.688Z,27.55
2019-02-11T19:34:03.332Z,25.37
2019-02-11T19:39:07.051Z,28.45
2019-02-11T19:44:08.474Z,27.17
2019-02-11T19:49:10.043Z,25.97
2019-02-11T19:54:11.367Z,25.30
2019-02-11T19:59:12.641Z,21.33
2019-02-11T20:04:14.098Z,29.27
2019-02-11T20:09:15.469Z,21.90
2019-02-11T20:14:16.884Z,25.97
2019-02-11T20:19:18.418Z,27.50
2019-02-11T20:24:19.852Z,19.02
2019-02-11T20:29:21.305Z,23.90
2019-02-11T20:34:22.823Z,29.37
2019-02-11T20:39:24.235Z,22.93
2019-02-11T20:44:25.758Z,19.02
2019-02-11T20:49:27.026Z,28.15
2019-02-11T20:54:28.387Z,28.62
2019-02-11T20:59:30.587Z,27.93
2019-02-11T21:04:32.064Z,25.72
2019-02-11T21:09:33.505Z,25.88
2019-02-11T21:14:34.817Z,33.42
2019-02-11T21:19:36.212Z,33.78
2019-02-11T21:24:37.619Z,25.57
2019-02-11T21:29:38.914Z,29.00
2019-02-11T21:34:40.258Z,30.52
2019-02-11T21:39:41.587Z,36.75
2019-02-11T21:44:43.321Z,32.93
2019-02-11T21:49:44.879Z,28.42
2019-02-11T21:54:46.311Z,28.35
2019-02-11T21:59:47.854Z,38.73
2019-02-11T22:04:49.269Z,39.98
2019-02-11T22:09:50.775Z,29.98
2019-02-11T22:14:52.122Z,36.42
2019-02-11T22:19:53.636Z,29.02
2019-02-11T22:24:56.434Z,25.65
2019-02-11T22:29:58.008Z,26.68
2019-02-11T22:34:59.432Z,30.08
2019-02-11T22:40:00.765Z,25.92
2019-02-11T22:45:04.107Z,33.25
2019-02-11T22:50:10.374Z,26.73
2019-02-11T22:55:14.983Z,29.00
2019-02-11T23:00:26.407Z,28.40
2019-02-11T23:05:28.010Z,26.07
2019-02-11T23:10:29.582Z,26.12
2019-02-11T23:15:30.994Z,27.93
2019-02-11T23:20:32.325Z,24.67
2019-02-11T23:25:34.175Z,34.63
2019-02-11T23:30:35.494Z,38.30
2019-02-11T23:35:36.858Z,44.45
2019-02-11T23:40:38.112Z,40.20
2019-02-11T23:45:39.833Z,37.33
2019-02-11T23:50:41.217Z,33.73
2019-02-11T23:55:43.033Z,30.17
